sensor_id;sensor_type;location;lat;lon;timestamp;P1;durP1;ratioP1;P2;durP2;ratioP2
75516;SDS011;64097;52.548;13.406;2023-07-29T06:02:20;4.55;;;3.72;;
75516;SDS011;64097;52.548;13.406;2023-07-29T06:04:46;3.85;;;3.63;;
75516;SDS011;64097;52.548;13.406;2023-07-29T06:07:11;3.80;;;3.58;;
75516;SDS011;64097;52.548;13.406;2023-07-29T06:09:39;3.88;;;3.58;;
75516;SDS011;64097;52.548;13.406;2023-07-29T06:12:05;3.97;;;3.67;;
75516;SDS011;64097;52.548;13.406;2023-07-29T06:14:31;4.05;;;3.75;;
75516;SDS011;64097;52.548;13.406;2023-07-29T06:16:57;4.38;;;4.07;;
75516;SDS011;64097;52.548;13.406;2023-07-29T06:19:22;4.25;;;3.95;;
75516;SDS011;64097;52.548;13.406;2023-07-29T06:21:48;3.50;;;3.30;;
75516;SDS011;64097;52.548;13.406;2023-07-29T06:24:14;3.33;;;3.13;;
75516;SDS011;64097;52.548;13.406;2023-07-29T06:26:39;3.85;;;3.55;;
75516;SDS011;64097;52.548;13.406;2023-07-29T06:29:05;3.63;;;3.33;;
75516;SDS011;64097;52.548;13.406;2023-07-29T06:31:31;3.95;;;3.65;;
75516;SDS011;64097;52.548;13.406;2023-07-29T06:33:57;3.58;;;3.35;;
75516;SDS011;64097;52.548;13.406;2023-07-29T06:36:23;3.50;;;3.22;;
75516;SDS011;64097;52.548;13.406;2023-07-29T06:38:49;3.50;;;3.20;;
75516;SDS011;64097;52.548;13.406;2023-07-29T06:41:15;3.80;;;3.50;;
75516;SDS011;64097;52.548;13.406;2023-07-29T06:43:41;3.58;;;3.30;;
75516;SDS011;64097;52.548;13.406;2023-07-29T06:46:07;3.65;;;3.35;;
75516;SDS011;64097;52.548;13.406;2023-07-29T06:48:33;3.20;;;3.00;;
75516;SDS011;64097;52.548;13.406;2023-07-29T06:50:58;3.15;;;2.85;;
75516;SDS011;64097;52.548;13.406;2023-07-29T06:53:26;2.70;;;2.50;;
75516;SDS011;64097;52.548;13.406;2023-07-29T06:55:52;2.90;;;2.70;;
75516;SDS011;64097;52.548;13.406;2023-07-29T06:58:18;2.85;;;2.65;;
75516;SDS011;64097;52.548;13.406;2023-07-29T07:00:44;2.80;;;2.60;;
75516;SDS011;64097;52.548;13.406;2023-07-29T07:03:09;2.90;;;2.70;;
75516;SDS011;64097;52.548;13.406;2023-07-29T07:05:35;3.00;;;2.80;;
75516;SDS011;64097;52.548;13.406;2023-07-29T07:08:01;3.10;;;2.90;;
75516;SDS011;64097;52.548;13.406;2023-07-29T07:10:26;3.67;;;3.35;;
75516;SDS011;64097;52.548;13.406;2023-07-29T07:12:52;2.85;;;2.65;;
75516;SDS011;64097;52.548;13.406;2023-07-29T07:15:18;3.08;;;2.88;;
75516;SDS011;64097;52.548;13.406;2023-07-29T07:17:43;2.80;;;2.60;;
75516;SDS011;64097;52.548;13.406;2023-07-29T07:20:09;2.80;;;2.60;;
75516;SDS011;64097;52.548;13.406;2023-07-29T07:22:35;2.95;;;2.75;;
75516;SDS011;64097;52.548;13.406;2023-07-29T07:25:01;2.65;;;2.50;;
75516;SDS011;64097;52.548;13.406;2023-07-29T07:27:27;2.85;;;2.65;;
75516;SDS011;64097;52.548;13.406;2023-07-29T07:29:53;2.58;;;2.38;;
75516;SDS011;64097;52.548;13.406;2023-07-29T07:32:18;3.15;;;2.95;;
75516;SDS011;64097;52.548;13.406;2023-07-29T07:34:44;3.22;;;3.03;;
75516;SDS011;64097;52.548;13.406;2023-07-29T07:37:09;3.10;;;2.90;;
75516;SDS011;64097;52.548;13.406;2023-07-29T07:39:35;3.30;;;3.10;;
75516;SDS011;64097;52.548;13.406;2023-07-29T07:42:01;3.42;;;3.22;;
75516;SDS011;64097;52.548;13.406;2023-07-29T07:44:27;3.97;;;3.72;;
75516;SDS011;64097;52.548;13.406;2023-07-29T07:46:52;3.60;;;3.40;;
75516;SDS011;64097;52.548;13.406;2023-07-29T07:49:21;3.33;;;3.13;;
75516;SDS011;64097;52.548;13.406;2023-07-29T07:51:47;3.55;;;3.35;;
75516;SDS011;64097;52.548;13.406;2023-07-29T07:54:13;3.95;;;3.70;;
75516;SDS011;64097;52.548;13.406;2023-07-29T07:56:38;4.15;;;3.85;;
75516;SDS011;64097;52.548;13.406;2023-07-29T07:59:04;3.78;;;3.58;;
75516;SDS011;64097;52.548;13.406;2023-07-29T08:01:38;3.65;;;3.45;;
75516;SDS011;64097;52.548;13.406;2023-07-29T08:04:04;4.60;;;4.30;;
75516;SDS011;64097;52.548;13.406;2023-07-29T08:06:30;4.40;;;4.10;;
75516;SDS011;64097;52.548;13.406;2023-07-29T08:08:57;3.67;;;3.40;;
75516;SDS011;64097;52.548;13.406;2023-07-29T08:11:22;4.00;;;3.78;;
75516;SDS011;64097;52.548;13.406;2023-07-29T08:13:48;4.40;;;4.10;;
75516;SDS011;64097;52.548;13.406;2023-07-29T08:16:14;3.90;;;3.70;;
75516;SDS011;64097;52.548;13.406;2023-07-29T08:18:40;4.45;;;4.07;;
75516;SDS011;64097;52.548;13.406;2023-07-29T08:21:06;3.92;;;3.70;;
75516;SDS011;64097;52.548;13.406;2023-07-29T08:23:34;3.60;;;3.40;;
75516;SDS011;64097;52.548;13.406;2023-07-29T08:26:01;3.80;;;3.60;;
75516;SDS011;64097;52.548;13.406;2023-07-29T08:28:33;3.53;;;3.22;;
75516;SDS011;64097;52.548;13.406;2023-07-29T08:31:00;2.80;;;2.65;;
75516;SDS011;64097;52.548;13.406;2023-07-29T08:33:27;3.13;;;2.90;;
75516;SDS011;64097;52.548;13.406;2023-07-29T08:35:54;3.90;;;3.60;;
75516;SDS011;64097;52.548;13.406;2023-07-29T08:38:20;3.17;;;2.97;;
75516;SDS011;64097;52.548;13.406;2023-07-29T08:41:29;2.70;;;2.60;;
75516;SDS011;64097;52.548;13.406;2023-07-29T08:44:06;2.92;;;2.72;;
75516;SDS011;64097;52.548;13.406;2023-07-29T08:46:32;2.92;;;2.72;;
75516;SDS011;64097;52.548;13.406;2023-07-29T08:48:58;2.67;;;2.55;;
75516;SDS011;64097;52.548;13.406;2023-07-29T08:51:26;2.60;;;2.50;;
75516;SDS011;64097;52.548;13.406;2023-07-29T08:53:52;2.60;;;2.40;;
75516;SDS011;64097;52.548;13.406;2023-07-29T08:56:19;2.20;;;2.10;;
75516;SDS011;64097;52.548;13.406;2023-07-29T08:58:45;2.10;;;2.00;;
75516;SDS011;64097;52.548;13.406;2023-07-29T09:01:11;2.40;;;2.30;;
75516;SDS011;64097;52.548;13.406;2023-07-29T09:03:37;2.30;;;2.20;;
75516;SDS011;64097;52.548;13.406;2023-07-29T09:06:03;2.30;;;2.20;;
75516;SDS011;64097;52.548;13.406;2023-07-29T09:08:29;2.03;;;1.92;;
75516;SDS011;64097;52.548;13.406;2023-07-29T09:10:55;2.10;;;2.00;;
75516;SDS011;64097;52.548;13.406;2023-07-29T09:13:21;2.65;;;2.30;;
75516;SDS011;64097;52.548;13.406;2023-07-29T09:15:47;2.25;;;2.15;;
75516;SDS011;64097;52.548;13.406;2023-07-29T09:18:16;2.20;;;2.10;;
75516;SDS011;64097;52.548;13.406;2023-07-29T09:20:45;2.17;;;2.08;;
75516;SDS011;64097;52.548;13.406;2023-07-29T09:23:12;2.42;;;2.22;;
75516;SDS011;64097;52.548;13.406;2023-07-29T09:25:39;2.10;;;2.00;;
75516;SDS011;64097;52.548;13.406;2023-07-29T09:28:12;2.20;;;2.10;;
75516;SDS011;64097;52.548;13.406;2023-07-29T09:30:39;2.10;;;2.00;;
75516;SDS011;64097;52.548;13.406;2023-07-29T09:33:06;2.25;;;2.15;;
75516;SDS011;64097;52.548;13.406;2023-07-29T09:35:36;2.15;;;2.00;;
75516;SDS011;64097;52.548;13.406;2023-07-29T09:38:03;2.00;;;1.90;;
75516;SDS011;64097;52.548;13.406;2023-07-29T09:40:37;1.95;;;1.85;;
75516;SDS011;64097;52.548;13.406;2023-07-29T09:43:04;1.92;;;1.83;;
75516;SDS011;64097;52.548;13.406;2023-07-29T09:45:32;2.03;;;1.92;;
75516;SDS011;64097;52.548;13.406;2023-07-29T09:48:00;2.25;;;2.15;;
75516;SDS011;64097;52.548;13.406;2023-07-29T09:50:27;2.15;;;2.05;;
75516;SDS011;64097;52.548;13.406;2023-07-29T09:52:54;1.90;;;1.80;;
75516;SDS011;64097;52.548;13.406;2023-07-29T09:55:23;2.05;;;1.95;;
75516;SDS011;64097;52.548;13.406;2023-07-29T09:57:57;2.00;;;1.90;;
75516;SDS011;64097;52.548;13.406;2023-07-29T10:00:29;1.80;;;1.70;;
75516;SDS011;64097;52.548;13.406;2023-07-29T10:02:55;2.00;;;1.90;;
75516;SDS011;64097;52.548;13.406;2023-07-29T10:05:26;1.95;;;1.85;;
75516;SDS011;64097;52.548;13.406;2023-07-29T10:07:53;2.20;;;2.10;;
75516;SDS011;64097;52.548;13.406;2023-07-29T10:10:20;2.15;;;2.05;;
75516;SDS011;64097;52.548;13.406;2023-07-29T10:12:46;2.03;;;1.92;;
75516;SDS011;64097;52.548;13.406;2023-07-29T10:15:12;2.03;;;1.90;;
75516;SDS011;64097;52.548;13.406;2023-07-29T10:17:39;2.10;;;2.00;;
75516;SDS011;64097;52.548;13.406;2023-07-29T10:20:06;1.98;;;1.88;;
75516;SDS011;64097;52.548;13.406;2023-07-29T10:22:40;2.00;;;1.90;;
75516;SDS011;64097;52.548;13.406;2023-07-29T10:25:08;2.05;;;1.90;;
75516;SDS011;64097;52.548;13.406;2023-07-29T10:27:48;1.70;;;1.60;;
75516;SDS011;64097;52.548;13.406;2023-07-29T10:30:29;1.83;;;1.73;;
75516;SDS011;64097;52.548;13.406;2023-07-29T10:32:57;1.50;;;1.40;;
75516;SDS011;64097;52.548;13.406;2023-07-29T10:35:24;1.70;;;1.60;;
75516;SDS011;64097;52.548;13.406;2023-07-29T10:37:50;2.17;;;2.08;;
75516;SDS011;64097;52.548;13.406;2023-07-29T10:40:18;2.10;;;2.00;;
75516;SDS011;64097;52.548;13.406;2023-07-29T10:43:01;1.92;;;1.83;;
75516;SDS011;64097;52.548;13.406;2023-07-29T10:45:37;1.88;;;1.77;;
75516;SDS011;64097;52.548;13.406;2023-07-29T10:48:09;1.65;;;1.50;;
75516;SDS011;64097;52.548;13.406;2023-07-29T10:53:46;2.00;;;1.75;;
75516;SDS011;64097;52.548;13.406;2023-07-29T10:56:12;1.70;;;1.60;;
75516;SDS011;64097;52.548;13.406;2023-07-29T10:58:38;1.90;;;1.80;;
75516;SDS011;64097;52.548;13.406;2023-07-29T11:01:12;1.73;;;1.63;;
75516;SDS011;64097;52.548;13.406;2023-07-29T11:03:38;1.80;;;1.70;;
75516;SDS011;64097;52.548;13.406;2023-07-29T11:06:04;1.65;;;1.55;;
75516;SDS011;64097;52.548;13.406;2023-07-29T11:08:30;1.70;;;1.60;;
75516;SDS011;64097;52.548;13.406;2023-07-29T11:13:28;1.20;;;1.10;;
75516;SDS011;64097;52.548;13.406;2023-07-29T11:15:55;1.60;;;1.50;;
75516;SDS011;64097;52.548;13.406;2023-07-29T11:18:24;1.27;;;1.17;;
75516;SDS011;64097;52.548;13.406;2023-07-29T11:20:55;1.88;;;1.42;;
75516;SDS011;64097;52.548;13.406;2023-07-29T11:23:27;1.92;;;1.20;;
75516;SDS011;64097;52.548;13.406;2023-07-29T11:25:54;1.10;;;0.70;;
75516;SDS011;64097;52.548;13.406;2023-07-29T11:28:20;0.95;;;0.63;;
75516;SDS011;64097;52.548;13.406;2023-07-29T11:30:47;0.80;;;0.60;;
75516;SDS011;64097;52.548;13.406;2023-07-29T11:33:16;0.98;;;0.60;;
75516;SDS011;64097;52.548;13.406;2023-07-29T11:35:45;0.73;;;0.50;;
75516;SDS011;64097;52.548;13.406;2023-07-29T11:38:14;0.93;;;0.63;;
75516;SDS011;64097;52.548;13.406;2023-07-29T11:40:41;1.05;;;0.60;;
75516;SDS011;64097;52.548;13.406;2023-07-29T11:43:07;1.35;;;0.70;;
75516;SDS011;64097;52.548;13.406;2023-07-29T11:45:32;1.38;;;0.70;;
75516;SDS011;64097;52.548;13.406;2023-07-29T11:48:00;0.70;;;0.55;;
75516;SDS011;64097;52.548;13.406;2023-07-29T11:50:26;1.10;;;0.70;;
75516;SDS011;64097;52.548;13.406;2023-07-29T11:52:52;3.53;;;0.70;;
75516;SDS011;64097;52.548;13.406;2023-07-29T11:55:18;2.00;;;0.80;;
75516;SDS011;64097;52.548;13.406;2023-07-29T11:57:45;1.27;;;0.80;;
75516;SDS011;64097;52.548;13.406;2023-07-29T12:00:16;1.48;;;0.70;;
75516;SDS011;64097;52.548;13.406;2023-07-29T12:02:43;1.30;;;0.73;;
75516;SDS011;64097;52.548;13.406;2023-07-29T12:05:10;1.73;;;0.80;;
75516;SDS011;64097;52.548;13.406;2023-07-29T12:07:40;1.20;;;0.60;;
75516;SDS011;64097;52.548;13.406;2023-07-29T12:10:08;1.25;;;1.02;;
75516;SDS011;64097;52.548;13.406;2023-07-29T12:12:44;3.22;;;2.20;;
75516;SDS011;64097;52.548;13.406;2023-07-29T12:15:11;4.82;;;3.20;;
75516;SDS011;64097;52.548;13.406;2023-07-29T12:17:40;5.72;;;3.78;;
75516;SDS011;64097;52.548;13.406;2023-07-29T12:20:09;8.27;;;5.07;;
75516;SDS011;64097;52.548;13.406;2023-07-29T12:22:35;10.10;;;5.32;;
75516;SDS011;64097;52.548;13.406;2023-07-29T12:25:01;8.80;;;4.80;;
75516;SDS011;64097;52.548;13.406;2023-07-29T12:27:29;6.97;;;4.03;;
75516;SDS011;64097;52.548;13.406;2023-07-29T12:29:56;5.90;;;3.05;;
75516;SDS011;64097;52.548;13.406;2023-07-29T12:32:24;4.57;;;3.00;;
75516;SDS011;64097;52.548;13.406;2023-07-29T12:34:52;3.08;;;2.15;;
75516;SDS011;64097;52.548;13.406;2023-07-29T12:37:18;2.40;;;1.50;;
75516;SDS011;64097;52.548;13.406;2023-07-29T12:39:44;2.47;;;1.30;;
75516;SDS011;64097;52.548;13.406;2023-07-29T12:42:10;1.90;;;0.93;;
75516;SDS011;64097;52.548;13.406;2023-07-29T12:44:37;1.35;;;1.00;;
75516;SDS011;64097;52.548;13.406;2023-07-29T12:47:04;1.15;;;0.88;;
75516;SDS011;64097;52.548;13.406;2023-07-29T12:49:30;1.40;;;1.05;;
75516;SDS011;64097;52.548;13.406;2023-07-29T12:51:57;1.75;;;1.00;;
75516;SDS011;64097;52.548;13.406;2023-07-29T12:54:24;1.38;;;0.80;;
75516;SDS011;64097;52.548;13.406;2023-07-29T12:56:49;1.30;;;0.77;;
75516;SDS011;64097;52.548;13.406;2023-07-29T12:59:15;1.10;;;1.00;;
75516;SDS011;64097;52.548;13.406;2023-07-29T13:01:41;1.27;;;1.00;;
75516;SDS011;64097;52.548;13.406;2023-07-29T13:04:06;1.20;;;1.10;;
75516;SDS011;64097;52.548;13.406;2023-07-29T13:06:32;1.33;;;1.23;;
75516;SDS011;64097;52.548;13.406;2023-07-29T13:08:58;1.30;;;1.20;;
75516;SDS011;64097;52.548;13.406;2023-07-29T13:11:23;2.15;;;1.40;;
75516;SDS011;64097;52.548;13.406;2023-07-29T13:13:49;1.38;;;1.27;;
75516;SDS011;64097;52.548;13.406;2023-07-29T13:16:15;1.35;;;1.25;;
75516;SDS011;64097;52.548;13.406;2023-07-29T13:18:41;1.73;;;1.60;;
75516;SDS011;64097;52.548;13.406;2023-07-29T13:21:08;1.90;;;1.80;;
75516;SDS011;64097;52.548;13.406;2023-07-29T13:23:34;1.35;;;1.25;;
75516;SDS011;64097;52.548;13.406;2023-07-29T13:26:00;1.60;;;1.50;;
75516;SDS011;64097;52.548;13.406;2023-07-29T13:28:26;1.65;;;1.55;;
75516;SDS011;64097;52.548;13.406;2023-07-29T13:30:51;1.65;;;1.55;;
75516;SDS011;64097;52.548;13.406;2023-07-29T13:33:17;1.75;;;1.65;;
75516;SDS011;64097;52.548;13.406;2023-07-29T13:35:43;2.00;;;1.80;;
75516;SDS011;64097;52.548;13.406;2023-07-29T13:38:08;1.27;;;1.17;;
75516;SDS011;64097;52.548;13.406;2023-07-29T13:40:34;1.50;;;1.40;;
75516;SDS011;64097;52.548;13.406;2023-07-29T13:43:00;1.40;;;1.30;;
75516;SDS011;64097;52.548;13.406;2023-07-29T13:45:25;1.38;;;1.27;;
75516;SDS011;64097;52.548;13.406;2023-07-29T13:47:51;1.40;;;1.30;;
75516;SDS011;64097;52.548;13.406;2023-07-29T13:50:17;1.48;;;1.38;;
75516;SDS011;64097;52.548;13.406;2023-07-29T13:52:43;1.35;;;1.25;;
75516;SDS011;64097;52.548;13.406;2023-07-29T13:55:09;1.23;;;1.13;;
75516;SDS011;64097;52.548;13.406;2023-07-29T13:57:36;1.17;;;1.08;;
75516;SDS011;64097;52.548;13.406;2023-07-29T14:00:02;1.33;;;1.23;;
